sensor_id;sensor_type;location;lat;lon;timestamp;pressure;altitude;pressure_sealevel;temperature;humidity
70248;BME280;57641;51.416;5.506;2023-09-19T00:01:42;100919.94;;;19.74;58.34
70248;BME280;57641;51.416;5.506;2023-09-19T00:04:11;100911.19;;;19.78;59.13
70248;BME280;57641;51.416;5.506;2023-09-19T00:06:41;100921.81;;;19.87;58.44
70248;BME280;57641;51.416;5.506;2023-09-19T00:09:07;100923.72;;;19.66;59.09
70248;BME280;57641;51.416;5.506;2023-09-19T00:11:37;100931.00;;;19.59;58.90
70248;BME280;57641;51.416;5.506;2023-09-19T00:14:03;100930.09;;;19.98;58.56
70248;BME280;57641;51.416;5.506;2023-09-19T00:16:33;100940.97;;;19.72;58.47
70248;BME280;57641;51.416;5.506;2023-09-19T00:18:58;100934.94;;;19.63;59.03
70248;BME280;57641;51.416;5.506;2023-09-19T00:21:28;100928.50;;;19.71;58.84
70248;BME280;57641;51.416;5.506;2023-09-19T00:23:56;100937.00;;;19.68;59.18
70248;BME280;57641;51.416;5.506;2023-09-19T00:26:22;100934.31;;;19.74;58.49
70248;BME280;57641;51.416;5.506;2023-09-19T00:28:48;100932.84;;;19.32;59.87
70248;BME280;57641;51.416;5.506;2023-09-19T00:31:13;100947.44;;;19.58;58.61
70248;BME280;57641;51.416;5.506;2023-09-19T00:33:39;100942.66;;;19.60;58.66
70248;BME280;57641;51.416;5.506;2023-09-19T00:36:04;100948.06;;;19.66;58.52
70248;BME280;57641;51.416;5.506;2023-09-19T00:38:30;100946.41;;;19.72;57.71
70248;BME280;57641;51.416;5.506;2023-09-19T00:40:57;100959.72;;;19.67;57.60
70248;BME280;57641;51.416;5.506;2023-09-19T00:43:22;100958.66;;;19.35;58.64
70248;BME280;57641;51.416;5.506;2023-09-19T00:45:51;100956.56;;;19.17;58.61
70248;BME280;57641;51.416;5.506;2023-09-19T00:48:17;100963.03;;;19.62;57.11
70248;BME280;57641;51.416;5.506;2023-09-19T00:50:44;100958.88;;;19.60;57.52
70248;BME280;57641;51.416;5.506;2023-09-19T00:53:14;100960.94;;;19.18;58.04
70248;BME280;57641;51.416;5.506;2023-09-19T00:55:41;100969.06;;;19.64;57.00
70248;BME280;57641;51.416;5.506;2023-09-19T00:58:08;100977.59;;;19.35;57.48
70248;BME280;57641;51.416;5.506;2023-09-19T01:00:35;100972.38;;;19.14;57.69
70248;BME280;57641;51.416;5.506;2023-09-19T01:03:01;100976.97;;;19.46;57.35
70248;BME280;57641;51.416;5.506;2023-09-19T01:05:27;100988.81;;;19.38;57.05
70248;BME280;57641;51.416;5.506;2023-09-19T01:07:52;100991.09;;;19.35;56.63
70248;BME280;57641;51.416;5.506;2023-09-19T01:10:19;100993.38;;;19.18;56.99
70248;BME280;57641;51.416;5.506;2023-09-19T01:18:11;100992.34;;;19.32;56.74
70248;BME280;57641;51.416;5.506;2023-09-19T01:23:20;100997.78;;;19.59;55.87
70248;BME280;57641;51.416;5.506;2023-09-19T01:26:07;101004.66;;;19.55;55.44
70248;BME280;57641;51.416;5.506;2023-09-19T01:31:33;101001.06;;;19.41;55.79
70248;BME280;57641;51.416;5.506;2023-09-19T01:34:01;101005.06;;;19.58;55.13
70248;BME280;57641;51.416;5.506;2023-09-19T01:36:33;101008.19;;;19.55;54.90
70248;BME280;57641;51.416;5.506;2023-09-19T01:39:13;101006.28;;;19.29;55.76
70248;BME280;57641;51.416;5.506;2023-09-19T01:47:19;101011.47;;;19.37;55.53
70248;BME280;57641;51.416;5.506;2023-09-19T01:50:11;101004.81;;;19.14;54.79
70248;BME280;57641;51.416;5.506;2023-09-19T01:52:45;101015.44;;;19.35;54.41
70248;BME280;57641;51.416;5.506;2023-09-19T01:55:14;101017.16;;;19.56;54.11
70248;BME280;57641;51.416;5.506;2023-09-19T01:57:49;101016.94;;;19.51;54.19
70248;BME280;57641;51.416;5.506;2023-09-19T02:00:18;101012.72;;;19.22;54.29
70248;BME280;57641;51.416;5.506;2023-09-19T02:02:47;101016.88;;;19.24;53.91
70248;BME280;57641;51.416;5.506;2023-09-19T02:05:13;101016.25;;;19.42;53.49
70248;BME280;57641;51.416;5.506;2023-09-19T02:07:48;101013.97;;;19.26;53.49
70248;BME280;57641;51.416;5.506;2023-09-19T02:10:13;101013.31;;;19.17;53.85
70248;BME280;57641;51.416;5.506;2023-09-19T02:12:39;101013.75;;;19.27;53.46
70248;BME280;57641;51.416;5.506;2023-09-19T02:15:05;101013.31;;;19.17;54.09
70248;BME280;57641;51.416;5.506;2023-09-19T02:17:32;101007.94;;;19.24;53.49
70248;BME280;57641;51.416;5.506;2023-09-19T02:19:58;101005.38;;;18.96;52.53
70248;BME280;57641;51.416;5.506;2023-09-19T02:22:24;101015.00;;;19.31;53.36
70248;BME280;57641;51.416;5.506;2023-09-19T02:24:50;101007.75;;;19.38;52.00
70248;BME280;57641;51.416;5.506;2023-09-19T02:27:16;101007.72;;;19.12;52.82
70248;BME280;57641;51.416;5.506;2023-09-19T02:29:42;101015.00;;;19.18;52.36
70248;BME280;57641;51.416;5.506;2023-09-19T02:32:08;101018.53;;;19.32;51.93
70248;BME280;57641;51.416;5.506;2023-09-19T02:34:37;101021.41;;;19.11;52.41
70248;BME280;57641;51.416;5.506;2023-09-19T02:37:04;101025.59;;;19.20;52.55
70248;BME280;57641;51.416;5.506;2023-09-19T02:39:31;101021.66;;;19.35;52.10
70248;BME280;57641;51.416;5.506;2023-09-19T02:41:57;101022.72;;;19.34;52.06
70248;BME280;57641;51.416;5.506;2023-09-19T02:44:23;101027.47;;;19.26;52.10
70248;BME280;57641;51.416;5.506;2023-09-19T02:46:49;101027.31;;;19.47;52.22
70248;BME280;57641;51.416;5.506;2023-09-19T02:49:15;101024.59;;;19.34;52.13
70248;BME280;57641;51.416;5.506;2023-09-19T02:51:40;101029.97;;;19.27;51.63
70248;BME280;57641;51.416;5.506;2023-09-19T02:54:07;101022.47;;;19.16;52.16
70248;BME280;57641;51.416;5.506;2023-09-19T02:56:32;101015.63;;;19.27;52.69
70248;BME280;57641;51.416;5.506;2023-09-19T02:58:58;101024.56;;;19.21;52.51
70248;BME280;57641;51.416;5.506;2023-09-19T03:01:26;101028.25;;;19.00;52.78
70248;BME280;57641;51.416;5.506;2023-09-19T03:03:52;101035.16;;;19.22;53.17
70248;BME280;57641;51.416;5.506;2023-09-19T03:06:19;101036.25;;;19.34;52.97
70248;BME280;57641;51.416;5.506;2023-09-19T03:08:45;101037.53;;;18.78;53.50
70248;BME280;57641;51.416;5.506;2023-09-19T03:11:12;101040.84;;;18.73;53.94
70248;BME280;57641;51.416;5.506;2023-09-19T03:13:40;101033.47;;;19.15;52.93
70248;BME280;57641;51.416;5.506;2023-09-19T03:16:07;101037.03;;;19.22;52.82
70248;BME280;57641;51.416;5.506;2023-09-19T03:18:36;101032.03;;;19.25;52.77
70248;BME280;57641;51.416;5.506;2023-09-19T03:21:02;101029.31;;;19.12;52.55
70248;BME280;57641;51.416;5.506;2023-09-19T03:23:28;101026.88;;;19.24;52.80
70248;BME280;57641;51.416;5.506;2023-09-19T03:25:57;101032.66;;;19.21;53.08
70248;BME280;57641;51.416;5.506;2023-09-19T03:28:24;101035.75;;;19.11;53.46
70248;BME280;57641;51.416;5.506;2023-09-19T03:31:03;101030.94;;;19.00;53.46
70248;BME280;57641;51.416;5.506;2023-09-19T03:33:29;101036.41;;;19.20;53.38
70248;BME280;57641;51.416;5.506;2023-09-19T03:35:59;101038.69;;;19.16;52.81
70248;BME280;57641;51.416;5.506;2023-09-19T03:38:29;101035.78;;;19.31;53.34
70248;BME280;57641;51.416;5.506;2023-09-19T03:40:54;101027.06;;;19.42;53.30
70248;BME280;57641;51.416;5.506;2023-09-19T03:43:20;101036.63;;;19.31;53.72
70248;BME280;57641;51.416;5.506;2023-09-19T03:45:45;101025.59;;;19.20;53.70
70248;BME280;57641;51.416;5.506;2023-09-19T03:48:12;101024.31;;;19.09;54.01
70248;BME280;57641;51.416;5.506;2023-09-19T03:50:38;101020.19;;;19.13;54.00
70248;BME280;57641;51.416;5.506;2023-09-19T03:53:04;101027.06;;;19.22;53.46
70248;BME280;57641;51.416;5.506;2023-09-19T03:55:30;101023.03;;;18.92;54.43
70248;BME280;57641;51.416;5.506;2023-09-19T03:57:56;101019.31;;;18.99;54.16
70248;BME280;57641;51.416;5.506;2023-09-19T04:00:22;101022.84;;;19.00;54.51
70248;BME280;57641;51.416;5.506;2023-09-19T04:02:51;101024.09;;;18.97;54.61
70248;BME280;57641;51.416;5.506;2023-09-19T04:05:17;101020.59;;;19.17;54.42
70248;BME280;57641;51.416;5.506;2023-09-19T04:07:43;101009.34;;;19.07;54.48
70248;BME280;57641;51.416;5.506;2023-09-19T04:10:09;101017.22;;;18.95;54.54
70248;BME280;57641;51.416;5.506;2023-09-19T04:12:37;101017.63;;;18.98;54.56
70248;BME280;57641;51.416;5.506;2023-09-19T04:15:05;101025.75;;;18.98;54.48
70248;BME280;57641;51.416;5.506;2023-09-19T04:17:31;101021.09;;;18.66;55.35
70248;BME280;57641;51.416;5.506;2023-09-19T04:19:58;101022.84;;;19.00;54.85
70248;BME280;57641;51.416;5.506;2023-09-19T04:22:24;101027.16;;;18.88;55.17
70248;BME280;57641;51.416;5.506;2023-09-19T04:24:49;101028.03;;;18.95;54.78
70248;BME280;57641;51.416;5.506;2023-09-19T04:27:15;101027.81;;;18.90;55.12
70248;BME280;57641;51.416;5.506;2023-09-19T04:29:40;101045.06;;;18.95;55.20
70248;BME280;57641;51.416;5.506;2023-09-19T04:32:10;101045.28;;;18.87;55.46
70248;BME280;57641;51.416;5.506;2023-09-19T04:34:35;101051.31;;;18.96;54.79
70248;BME280;57641;51.416;5.506;2023-09-19T04:37:01;101047.97;;;18.94;55.18
70248;BME280;57641;51.416;5.506;2023-09-19T04:39:27;101060.47;;;19.02;55.31
70248;BME280;57641;51.416;5.506;2023-09-19T04:41:53;101063.00;;;19.10;54.95
70248;BME280;57641;51.416;5.506;2023-09-19T04:44:20;101070.22;;;18.96;55.41
70248;BME280;57641;51.416;5.506;2023-09-19T04:46:46;101076.84;;;18.93;55.70
70248;BME280;57641;51.416;5.506;2023-09-19T04:49:12;101072.41;;;18.66;55.86
70248;BME280;57641;51.416;5.506;2023-09-19T04:51:38;101082.38;;;18.38;56.53
70248;BME280;57641;51.416;5.506;2023-09-19T04:54:04;101081.97;;;18.41;57.12
70248;BME280;57641;51.416;5.506;2023-09-19T04:56:30;101092.59;;;18.77;55.91
70248;BME280;57641;51.416;5.506;2023-09-19T04:58:57;101085.72;;;18.74;56.43
70248;BME280;57641;51.416;5.506;2023-09-19T05:01:24;101092.47;;;18.91;55.76
70248;BME280;57641;51.416;5.506;2023-09-19T05:03:49;101102.91;;;18.67;56.72
70248;BME280;57641;51.416;5.506;2023-09-19T05:06:20;101102.34;;;18.71;56.60
70248;BME280;57641;51.416;5.506;2023-09-19T05:08:49;101113.34;;;18.70;56.17
70248;BME280;57641;51.416;5.506;2023-09-19T05:11:21;101108.00;;;18.83;56.27
70248;BME280;57641;51.416;5.506;2023-09-19T05:13:47;101100.72;;;18.77;56.10
70248;BME280;57641;51.416;5.506;2023-09-19T05:16:12;101119.09;;;18.60;56.64
70248;BME280;57641;51.416;5.506;2023-09-19T05:18:38;101100.59;;;18.98;55.28
70248;BME280;57641;51.416;5.506;2023-09-19T05:21:03;101104.50;;;18.89;55.49
70248;BME280;57641;51.416;5.506;2023-09-19T05:23:28;101107.06;;;19.10;55.48
70248;BME280;57641;51.416;5.506;2023-09-19T05:25:54;101108.31;;;19.08;55.69
70248;BME280;57641;51.416;5.506;2023-09-19T05:28:22;101121.34;;;18.91;56.04
70248;BME280;57641;51.416;5.506;2023-09-19T05:30:47;101112.03;;;19.00;55.91
70248;BME280;57641;51.416;5.506;2023-09-19T05:33:14;101113.00;;;18.86;56.17
70248;BME280;57641;51.416;5.506;2023-09-19T05:35:39;101109.09;;;18.95;55.96
70248;BME280;57641;51.416;5.506;2023-09-19T05:38:07;101113.03;;;18.92;55.83
70248;BME280;57641;51.416;5.506;2023-09-19T05:40:38;101120.44;;;18.77;56.54
70248;BME280;57641;51.416;5.506;2023-09-19T05:43:06;101106.53;;;18.80;56.65
70248;BME280;57641;51.416;5.506;2023-09-19T05:45:31;101109.38;;;18.72;57.47
70248;BME280;57641;51.416;5.506;2023-09-19T05:48:07;101117.38;;;18.93;56.51
70248;BME280;57641;51.416;5.506;2023-09-19T05:50:33;101117.94;;;18.76;57.43
70248;BME280;57641;51.416;5.506;2023-09-19T05:52:59;101112.81;;;18.87;57.22
70248;BME280;57641;51.416;5.506;2023-09-19T05:55:24;101117.06;;;18.69;57.22
70248;BME280;57641;51.416;5.506;2023-09-19T05:57:51;101114.69;;;18.87;56.82
70248;BME280;57641;51.416;5.506;2023-09-19T06:00:21;101114.50;;;18.95;56.76
70248;BME280;57641;51.416;5.506;2023-09-19T06:02:51;101108.72;;;18.64;58.08
70248;BME280;57641;51.416;5.506;2023-09-19T06:05:18;101108.25;;;18.94;56.98
70248;BME280;57641;51.416;5.506;2023-09-19T06:07:43;101109.31;;;19.00;57.35
70248;BME280;57641;51.416;5.506;2023-09-19T06:10:09;101107.25;;;19.02;56.82
70248;BME280;57641;51.416;5.506;2023-09-19T06:12:42;101109.25;;;18.80;57.83
70248;BME280;57641;51.416;5.506;2023-09-19T06:15:11;101117.44;;;19.00;57.16
70248;BME280;57641;51.416;5.506;2023-09-19T06:17:49;101114.56;;;19.08;57.35
70248;BME280;57641;51.416;5.506;2023-09-19T06:20:15;101116.97;;;18.90;57.70
70248;BME280;57641;51.416;5.506;2023-09-19T06:22:43;101118.69;;;18.97;58.08
70248;BME280;57641;51.416;5.506;2023-09-19T06:25:13;101129.72;;;19.03;57.76
70248;BME280;57641;51.416;5.506;2023-09-19T06:27:53;101127.84;;;19.10;57.60
70248;BME280;57641;51.416;5.506;2023-09-19T06:30:20;101122.13;;;18.85;58.51
70248;BME280;57641;51.416;5.506;2023-09-19T06:32:46;101129.00;;;18.81;58.96
70248;BME280;57641;51.416;5.506;2023-09-19T06:35:13;101127.16;;;18.94;58.67
70248;BME280;57641;51.416;5.506;2023-09-19T06:37:39;101135.00;;;18.76;59.13
70248;BME280;57641;51.416;5.506;2023-09-19T06:40:13;101143.41;;;19.01;58.87
70248;BME280;57641;51.416;5.506;2023-09-19T06:43:05;101144.97;;;19.23;57.87
70248;BME280;57641;51.416;5.506;2023-09-19T06:45:31;101148.50;;;19.24;58.06
70248;BME280;57641;51.416;5.506;2023-09-19T06:47:57;101149.31;;;19.18;57.97
70248;BME280;57641;51.416;5.506;2023-09-19T06:50:23;101148.78;;;18.94;58.94
70248;BME280;57641;51.416;5.506;2023-09-19T06:52:53;101146.81;;;18.75;59.87
70248;BME280;57641;51.416;5.506;2023-09-19T06:55:21;101147.94;;;18.32;60.64
70248;BME280;57641;51.416;5.506;2023-09-19T06:57:49;101143.75;;;18.85;59.86
70248;BME280;57641;51.416;5.506;2023-09-19T07:00:16;101146.63;;;19.18;58.75
70248;BME280;57641;51.416;5.506;2023-09-19T07:02:56;101157.75;;;19.02;59.50
70248;BME280;57641;51.416;5.506;2023-09-19T07:05:24;101150.16;;;19.18;59.27
70248;BME280;57641;51.416;5.506;2023-09-19T07:07:49;101156.97;;;19.14;59.42
70248;BME280;57641;51.416;5.506;2023-09-19T07:10:15;101150.91;;;19.06;59.49
70248;BME280;57641;51.416;5.506;2023-09-19T07:12:41;101148.19;;;18.99;59.47
70248;BME280;57641;51.416;5.506;2023-09-19T07:15:07;101142.19;;;19.10;59.51
70248;BME280;57641;51.416;5.506;2023-09-19T07:17:33;101142.78;;;18.99;59.89
70248;BME280;57641;51.416;5.506;2023-09-19T07:19:59;101150.03;;;18.92;59.95
70248;BME280;57641;51.416;5.506;2023-09-19T07:22:28;101153.94;;;19.37;59.02
70248;BME280;57641;51.416;5.506;2023-09-19T07:24:53;101157.25;;;19.32;58.96
70248;BME280;57641;51.416;5.506;2023-09-19T07:27:19;101160.81;;;19.33;58.79
70248;BME280;57641;51.416;5.506;2023-09-19T07:29:44;101151.81;;;19.26;58.87
70248;BME280;57641;51.416;5.506;2023-09-19T07:32:10;101156.41;;;19.25;58.73
70248;BME280;57641;51.416;5.506;2023-09-19T07:34:37;101157.22;;;19.26;58.58
70248;BME280;57641;51.416;5.506;2023-09-19T07:37:04;101148.72;;;19.35;58.94
70248;BME280;57641;51.416;5.506;2023-09-19T07:39:29;101156.16;;;19.14;59.03
70248;BME280;57641;51.416;5.506;2023-09-19T07:41:55;101154.50;;;19.19;59.73
70248;BME280;57641;51.416;5.506;2023-09-19T07:44:20;101157.91;;;19.41;59.15
70248;BME280;57641;51.416;5.506;2023-09-19T07:46:46;101152.84;;;19.25;58.89
70248;BME280;57641;51.416;5.506;2023-09-19T07:49:11;101147.31;;;19.39;59.10
70248;BME280;57641;51.416;5.506;2023-09-19T07:51:37;101155.41;;;19.33;58.92
70248;BME280;57641;51.416;5.506;2023-09-19T07:54:03;101159.16;;;19.38;58.73
70248;BME280;57641;51.416;5.506;2023-09-19T07:56:29;101161.31;;;19.50;58.36
70248;BME280;57641;51.416;5.506;2023-09-19T07:58:56;101163.09;;;19.29;58.32
70248;BME280;57641;51.416;5.506;2023-09-19T08:01:24;101165.19;;;19.40;58.29
70248;BME280;57641;51.416;5.506;2023-09-19T08:03:52;101157.00;;;19.81;57.51
70248;BME280;57641;51.416;5.506;2023-09-19T08:06:18;101160.69;;;19.54;56.98
70248;BME280;57641;51.416;5.506;2023-09-19T08:08:45;101166.06;;;19.48;58.28
70248;BME280;57641;51.416;5.506;2023-09-19T08:11:11;101155.72;;;19.77;57.47
70248;BME280;57641;51.416;5.506;2023-09-19T08:13:40;101159.72;;;19.81;57.54
70248;BME280;57641;51.416;5.506;2023-09-19T08:16:10;101154.06;;;19.83;57.94
70248;BME280;57641;51.416;5.506;2023-09-19T08:18:36;101158.22;;;19.79;57.24
70248;BME280;57641;51.416;5.506;2023-09-19T08:21:05;101147.84;;;19.76;57.23
70248;BME280;57641;51.416;5.506;2023-09-19T08:23:33;101165.97;;;19.95;57.02
70248;BME280;57641;51.416;5.506;2023-09-19T08:25:58;101166.75;;;19.69;57.38
70248;BME280;57641;51.416;5.506;2023-09-19T08:28:27;101166.34;;;19.79;57.95
70248;BME280;57641;51.416;5.506;2023-09-19T08:30:55;101169.31;;;19.97;57.53
70248;BME280;57641;51.416;5.506;2023-09-19T08:33:21;101165.13;;;19.95;56.97
70248;BME280;57641;51.416;5.506;2023-09-19T08:35:46;101153.47;;;19.88;57.90
70248;BME280;57641;51.416;5.506;2023-09-19T08:38:11;101157.84;;;20.02;57.18
70248;BME280;57641;51.416;5.506;2023-09-19T08:40:39;101157.22;;;20.26;56.21
70248;BME280;57641;51.416;5.506;2023-09-19T08:43:07;101167.03;;;20.07;57.41
70248;BME280;57641;51.416;5.506;2023-09-19T08:45:33;101165.97;;;20.28;56.84
70248;BME280;57641;51.416;5.506;2023-09-19T08:48:20;101166.19;;;20.59;55.85
70248;BME280;57641;51.416;5.506;2023-09-19T08:51:03;101169.56;;;20.35;55.99
70248;BME280;57641;51.416;5.506;2023-09-19T08:56:43;101167.00;;;19.88;57.07
70248;BME280;57641;51.416;5.506;2023-09-19T08:59:10;101171.38;;;20.21;56.78
70248;BME280;57641;51.416;5.506;2023-09-19T09:01:37;101175.16;;;20.14;56.88
70248;BME280;57641;51.416;5.506;2023-09-19T09:04:08;101167.75;;;19.62;58.18
70248;BME280;57641;51.416;5.506;2023-09-19T09:06:34;101169.31;;;20.23;56.68
70248;BME280;57641;51.416;5.506;2023-09-19T09:09:02;101171.84;;;20.45;55.52
70248;BME280;57641;51.416;5.506;2023-09-19T09:11:29;101163.47;;;20.46;55.96
70248;BME280;57641;51.416;5.506;2023-09-19T09:13:58;101159.03;;;20.78;56.21
70248;BME280;57641;51.416;5.506;2023-09-19T09:16:24;101157.88;;;20.35;55.71
70248;BME280;57641;51.416;5.506;2023-09-19T09:18:51;101165.16;;;20.47;55.87
70248;BME280;57641;51.416;5.506;2023-09-19T09:21:20;101155.78;;;20.50;55.49
70248;BME280;57641;51.416;5.506;2023-09-19T09:23:48;101164.09;;;20.55;55.07
70248;BME280;57641;51.416;5.506;2023-09-19T09:26:15;101164.31;;;20.67;54.87
70248;BME280;57641;51.416;5.506;2023-09-19T09:28:46;101163.13;;;21.07;54.38
70248;BME280;57641;51.416;5.506;2023-09-19T09:31:23;101160.03;;;21.03;54.56
70248;BME280;57641;51.416;5.506;2023-09-19T09:33:56;101156.22;;;21.24;54.08
70248;BME280;57641;51.416;5.506;2023-09-19T09:36:39;101163.03;;;21.33;54.27
70248;BME280;57641;51.416;5.506;2023-09-19T09:39:07;101166.25;;;21.17;53.27
70248;BME280;57641;51.416;5.506;2023-09-19T09:41:44;101163.53;;;21.11;53.77
70248;BME280;57641;51.416;5.506;2023-09-19T09:44:14;101168.53;;;21.14;52.91
70248;BME280;57641;51.416;5.506;2023-09-19T09:46:45;101150.25;;;20.96;53.46
70248;BME280;57641;51.416;5.506;2023-09-19T09:49:24;101175.13;;;20.67;54.24
70248;BME280;57641;51.416;5.506;2023-09-19T09:52:03;101166.81;;;20.61;54.55
70248;BME280;57641;51.416;5.506;2023-09-19T09:54:34;101155.84;;;21.01;53.46
70248;BME280;57641;51.416;5.506;2023-09-19T09:57:10;101157.97;;;20.99;54.56
70248;BME280;57641;51.416;5.506;2023-09-19T09:59:49;101140.97;;;21.23;53.91
70248;BME280;57641;51.416;5.506;2023-09-19T10:02:15;101150.59;;;21.19;53.87
70248;BME280;57641;51.416;5.506;2023-09-19T10:04:48;101152.03;;;21.22;52.87
70248;BME280;57641;51.416;5.506;2023-09-19T10:07:40;101151.13;;;21.41;52.03
70248;BME280;57641;51.416;5.506;2023-09-19T10:10:08;101148.94;;;21.05;52.54
70248;BME280;57641;51.416;5.506;2023-09-19T10:12:50;101139.84;;;20.86;52.67
70248;BME280;57641;51.416;5.506;2023-09-19T10:15:18;101137.25;;;21.18;52.25
70248;BME280;57641;51.416;5.506;2023-09-19T10:17:52;101134.31;;;21.13;52.20
70248;BME280;57641;51.416;5.506;2023-09-19T10:20:21;101137.16;;;20.73;52.86
70248;BME280;57641;51.416;5.506;2023-09-19T10:22:50;101127.88;;;21.20;53.00
70248;BME280;57641;51.416;5.506;2023-09-19T10:25:43;101141.06;;;20.97;52.41
70248;BME280;57641;51.416;5.506;2023-09-19T10:28:13;101135.84;;;21.02;51.92
70248;BME280;57641;51.416;5.506;2023-09-19T10:30:47;101131.44;;;21.14;51.76
70248;BME280;57641;51.416;5.506;2023-09-19T10:33:16;101121.66;;;21.51;52.52
70248;BME280;57641;51.416;5.506;2023-09-19T10:35:47;101110.91;;;21.63;51.02
70248;BME280;57641;51.416;5.506;2023-09-19T10:38:14;101133.34;;;21.52;51.13
70248;BME280;57641;51.416;5.506;2023-09-19T10:40:42;101127.50;;;21.79;50.66
70248;BME280;57641;51.416;5.506;2023-09-19T10:43:16;101130.16;;;21.86;51.01
70248;BME280;57641;51.416;5.506;2023-09-19T10:45:47;101136.91;;;22.08;50.36
70248;BME280;57641;51.416;5.506;2023-09-19T10:48:18;101137.69;;;22.15;50.04
70248;BME280;57641;51.416;5.506;2023-09-19T10:53:27;101137.00;;;21.95;49.54
70248;BME280;57641;51.416;5.506;2023-09-19T10:55:57;101131.75;;;22.00;49.94
70248;BME280;57641;51.416;5.506;2023-09-19T10:58:29;101132.75;;;22.06;49.02
70248;BME280;57641;51.416;5.506;2023-09-19T11:01:00;101124.13;;;22.15;48.07
70248;BME280;57641;51.416;5.506;2023-09-19T11:03:41;101138.06;;;22.19;47.86
70248;BME280;57641;51.416;5.506;2023-09-19T11:08:51;101120.16;;;22.54;47.87
70248;BME280;57641;51.416;5.506;2023-09-19T11:33:16;101086.09;;;22.33;46.27
70248;BME280;57641;51.416;5.506;2023-09-19T11:36:11;101080.47;;;21.85;47.14
70248;BME280;57641;51.416;5.506;2023-09-19T11:39:00;101089.03;;;22.14;47.01
70248;BME280;57641;51.416;5.506;2023-09-19T11:41:40;101069.88;;;22.63;46.76
70248;BME280;57641;51.416;5.506;2023-09-19T11:49:18;101080.84;;;22.57;46.50
70248;BME280;57641;51.416;5.506;2023-09-19T11:51:50;101076.47;;;22.56;45.79
70248;BME280;57641;51.416;5.506;2023-09-19T11:54:20;101066.09;;;22.64;45.04
70248;BME280;57641;51.416;5.506;2023-09-19T11:56:51;101049.59;;;22.84;46.14
70248;BME280;57641;51.416;5.506;2023-09-19T11:59:20;101050.31;;;23.09;45.42
70248;BME280;57641;51.416;5.506;2023-09-19T12:02:03;101056.59;;;23.10;45.58
70248;BME280;57641;51.416;5.506;2023-09-19T12:04:41;101048.28;;;23.05;45.60
70248;BME280;57641;51.416;5.506;2023-09-19T12:07:10;101053.44;;;23.25;46.07
70248;BME280;57641;51.416;5.506;2023-09-19T12:09:39;101044.28;;;23.49;46.11
70248;BME280;57641;51.416;5.506;2023-09-19T12:12:26;101035.66;;;23.22;45.36
70248;BME280;57641;51.416;5.506;2023-09-19T12:14:57;101043.84;;;23.22;45.44
70248;BME280;57641;51.416;5.506;2023-09-19T12:17:25;101044.09;;;23.32;45.65
70248;BME280;57641;51.416;5.506;2023-09-19T12:20:02;101039.16;;;22.99;45.93
70248;BME280;57641;51.416;5.506;2023-09-19T12:22:46;101043.13;;;23.27;46.28
70248;BME280;57641;51.416;5.506;2023-09-19T12:25:15;101048.63;;;23.38;46.92
70248;BME280;57641;51.416;5.506;2023-09-19T12:27:49;101044.91;;;23.51;46.57
70248;BME280;57641;51.416;5.506;2023-09-19T12:30:19;101045.06;;;23.79;46.09
70248;BME280;57641;51.416;5.506;2023-09-19T12:32:48;101051.78;;;23.24;45.94
70248;BME280;57641;51.416;5.506;2023-09-19T12:35:28;101055.88;;;23.14;46.25
70248;BME280;57641;51.416;5.506;2023-09-19T12:38:00;101056.25;;;22.88;46.14
70248;BME280;57641;51.416;5.506;2023-09-19T12:40:26;101053.06;;;22.91;46.78
70248;BME280;57641;51.416;5.506;2023-09-19T12:42:54;101054.72;;;22.92;47.20
70248;BME280;57641;51.416;5.506;2023-09-19T12:45:30;101058.06;;;22.76;47.24
70248;BME280;57641;51.416;5.506;2023-09-19T12:51:04;101065.28;;;22.64;47.52
70248;BME280;57641;51.416;5.506;2023-09-19T12:53:41;101060.84;;;22.51;48.01
70248;BME280;57641;51.416;5.506;2023-09-19T12:56:18;101044.16;;;22.48;48.80
70248;BME280;57641;51.416;5.506;2023-09-19T12:58:56;101048.28;;;22.68;47.43
70248;BME280;57641;51.416;5.506;2023-09-19T13:01:23;101043.63;;;22.76;48.60
70248;BME280;57641;51.416;5.506;2023-09-19T13:04:10;101047.72;;;23.14;47.74
70248;BME280;57641;51.416;5.506;2023-09-19T13:06:37;101042.53;;;22.95;47.07
70248;BME280;57641;51.416;5.506;2023-09-19T13:09:09;101038.78;;;23.26;47.08
70248;BME280;57641;51.416;5.506;2023-09-19T13:11:38;101048.94;;;22.52;48.11
70248;BME280;57641;51.416;5.506;2023-09-19T13:14:27;101048.53;;;22.85;47.43
70248;BME280;57641;51.416;5.506;2023-09-19T13:19:45;101048.91;;;23.48;47.51
70248;BME280;57641;51.416;5.506;2023-09-19T13:22:39;101050.00;;;23.47;47.35
70248;BME280;57641;51.416;5.506;2023-09-19T13:25:09;101049.38;;;22.67;47.69
70248;BME280;57641;51.416;5.506;2023-09-19T13:27:43;101060.94;;;22.81;48.17
70248;BME280;57641;51.416;5.506;2023-09-19T13:30:10;101056.69;;;22.85;47.01
70248;BME280;57641;51.416;5.506;2023-09-19T13:32:36;101047.75;;;22.96;46.74
70248;BME280;57641;51.416;5.506;2023-09-19T13:35:07;101057.16;;;22.82;46.80
70248;BME280;57641;51.416;5.506;2023-09-19T13:37:37;101057.06;;;22.89;46.91
70248;BME280;57641;51.416;5.506;2023-09-19T13:40:10;101061.72;;;22.63;47.70
70248;BME280;57641;51.416;5.506;2023-09-19T13:42:40;101063.88;;;22.80;46.87
70248;BME280;57641;51.416;5.506;2023-09-19T13:45:07;101046.91;;;23.14;46.67
70248;BME280;57641;51.416;5.506;2023-09-19T13:47:33;101043.53;;;23.30;46.78
70248;BME280;57641;51.416;5.506;2023-09-19T13:50:02;101055.88;;;23.14;46.95
70248;BME280;57641;51.416;5.506;2023-09-19T13:52:30;101055.28;;;22.83;48.15
70248;BME280;57641;51.416;5.506;2023-09-19T13:54:57;101059.31;;;23.10;46.73
70248;BME280;57641;51.416;5.506;2023-09-19T13:57:26;101066.56;;;22.98;47.10
70248;BME280;57641;51.416;5.506;2023-09-19T13:59:52;101061.28;;;23.03;47.84